createdAt,value
2018-07-09T00:00:56.649Z,17.00
2018-07-09T00:03:24.854Z,17.00
2018-07-09T00:05:53.288Z,17.00
2018-07-09T00:08:21.505Z,17.00
2018-07-09T00:10:54.894Z,16.90
2018-07-09T00:13:23.656Z,16.80
2018-07-09T00:15:51.972Z,16.90
2018-07-09T00:18:20.163Z,16.90
2018-07-09T00:20:48.377Z,16.90
2018-07-09T00:23:16.845Z,16.90
2018-07-09T00:25:46.221Z,16.80
2018-07-09T00:28:14.844Z,16.60
2018-07-09T00:30:43.038Z,16.70
2018-07-09T00:33:11.350Z,16.70
2018-07-09T00:35:39.555Z,16.80
2018-07-09T00:38:07.783Z,16.80
2018-07-09T00:40:36.033Z,16.80
2018-07-09T00:43:04.364Z,16.70
2018-07-09T00:45:32.593Z,16.70
2018-07-09T00:48:00.857Z,16.70
2018-07-09T00:50:29.349Z,16.70
2018-07-09T00:52:57.545Z,16.70
2018-07-09T00:55:25.765Z,16.70
2018-07-09T00:57:54.034Z,16.60
2018-07-09T01:00:22.225Z,16.50
2018-07-09T01:02:50.453Z,16.40
2018-07-09T01:05:18.688Z,16.30
2018-07-09T01:07:46.905Z,16.30
2018-07-09T01:10:16.261Z,16.30
2018-07-09T01:12:44.462Z,16.40
2018-07-09T01:15:12.670Z,16.20
2018-07-09T01:17:40.874Z,16.20
2018-07-09T01:20:09.101Z,16.20
2018-07-09T01:22:37.394Z,16.20
2018-07-09T01:25:05.705Z,16.00
2018-07-09T01:27:33.999Z,15.80
2018-07-09T01:30:10.154Z,15.60
2018-07-09T01:32:38.943Z,15.60
2018-07-09T01:35:08.316Z,15.60
2018-07-09T01:37:36.741Z,15.60
2018-07-09T01:40:04.953Z,15.80
2018-07-09T01:42:33.216Z,15.70
2018-07-09T01:45:01.479Z,15.70
2018-07-09T01:47:29.753Z,15.70
2018-07-09T01:49:58.005Z,15.60
2018-07-09T01:52:26.165Z,15.60
2018-07-09T01:54:54.405Z,15.50
2018-07-09T01:57:22.624Z,15.60
2018-07-09T01:59:50.939Z,15.70
2018-07-09T02:02:19.217Z,15.80
2018-07-09T02:04:47.412Z,15.90
2018-07-09T02:07:15.697Z,16.00
2018-07-09T02:09:43.920Z,15.90
2018-07-09T02:12:12.123Z,15.70
2018-07-09T02:14:40.352Z,15.70
2018-07-09T02:17:08.541Z,15.70
2018-07-09T02:19:36.745Z,15.70
2018-07-09T02:22:04.987Z,15.70
2018-07-09T02:24:33.173Z,15.70
2018-07-09T02:27:01.366Z,15.60
2018-07-09T02:29:29.537Z,15.50
2018-07-09T02:31:57.742Z,15.30
2018-07-09T02:34:25.925Z,15.20
2018-07-09T02:36:54.476Z,15.20
2018-07-09T02:39:22.690Z,15.00
2018-07-09T02:41:50.892Z,15.00
2018-07-09T02:44:19.141Z,15.10
2018-07-09T02:46:47.318Z,15.10
2018-07-09T02:49:15.606Z,15.20
2018-07-09T02:51:43.773Z,15.30
2018-07-09T02:54:11.933Z,15.30
2018-07-09T02:56:40.168Z,15.40
2018-07-09T02:59:08.354Z,15.10
2018-07-09T03:01:36.575Z,15.00
2018-07-09T03:04:04.780Z,15.00
2018-07-09T03:06:33.042Z,14.90
2018-07-09T03:09:01.258Z,14.90
2018-07-09T03:11:29.433Z,15.10
2018-07-09T03:13:57.645Z,15.20
2018-07-09T03:16:25.929Z,15.40
2018-07-09T03:18:54.144Z,15.20
2018-07-09T03:21:22.379Z,15.20
2018-07-09T03:23:50.557Z,15.30
2018-07-09T03:26:18.786Z,15.40
2018-07-09T03:28:46.952Z,15.40
2018-07-09T03:31:15.160Z,15.40
2018-07-09T03:33:43.379Z,15.40
2018-07-09T03:36:11.561Z,15.40
2018-07-09T03:38:39.804Z,15.40
2018-07-09T03:41:08.045Z,15.50
2018-07-09T03:43:36.280Z,15.50
2018-07-09T03:46:04.497Z,15.40
2018-07-09T03:48:32.686Z,15.40
2018-07-09T03:51:00.901Z,15.20
2018-07-09T03:53:29.090Z,15.20
2018-07-09T03:55:57.412Z,15.10
2018-07-09T03:58:25.585Z,15.10
2018-07-09T04:01:00.725Z,15.20
2018-07-09T04:03:28.892Z,15.20
2018-07-09T04:05:57.134Z,15.20
2018-07-09T04:08:25.348Z,15.30
2018-07-09T04:10:53.645Z,15.30
2018-07-09T04:13:21.858Z,15.30
2018-07-09T04:15:50.073Z,15.40
2018-07-09T04:18:22.231Z,15.50
2018-07-09T04:20:50.560Z,15.60
2018-07-09T04:23:18.711Z,15.50
2018-07-09T04:25:47.041Z,15.30
2018-07-09T04:28:15.225Z,15.30
2018-07-09T04:30:43.475Z,15.30
2018-07-09T04:33:11.717Z,15.40
2018-07-09T04:35:39.914Z,15.50
2018-07-09T04:38:08.132Z,15.60
2018-07-09T04:40:36.381Z,15.70
2018-07-09T04:43:04.632Z,15.60
2018-07-09T04:45:32.844Z,15.60
2018-07-09T04:48:01.019Z,15.50
2018-07-09T04:50:29.245Z,15.80
2018-07-09T04:52:57.425Z,15.80
2018-07-09T04:55:25.648Z,15.80
2018-07-09T04:57:53.852Z,15.70
2018-07-09T05:00:22.022Z,15.80
2018-07-09T05:02:50.218Z,15.90
2018-07-09T05:05:18.390Z,15.80
2018-07-09T05:07:46.596Z,16.00
2018-07-09T05:10:14.772Z,16.00
2018-07-09T05:12:42.989Z,16.10
2018-07-09T05:15:11.204Z,16.10
2018-07-09T05:17:39.373Z,16.20
2018-07-09T05:20:07.625Z,16.30
2018-07-09T05:22:35.785Z,16.30
2018-07-09T05:25:03.994Z,16.20
2018-07-09T05:27:32.196Z,16.10
2018-07-09T05:30:00.373Z,16.30
2018-07-09T05:32:28.584Z,16.50
2018-07-09T05:34:56.760Z,16.60
2018-07-09T05:37:24.970Z,16.80
2018-07-09T05:39:53.423Z,16.90
2018-07-09T05:42:21.696Z,17.00
2018-07-09T05:44:49.948Z,17.00
2018-07-09T05:47:18.221Z,17.10
2018-07-09T05:49:47.153Z,17.40
2018-07-09T05:52:15.367Z,17.50
2018-07-09T05:54:43.616Z,17.90
2018-07-09T05:57:11.821Z,18.30
2018-07-09T05:59:39.997Z,18.50
2018-07-09T06:02:08.232Z,18.80
2018-07-09T06:04:36.404Z,19.20
2018-07-09T06:07:04.714Z,19.70
2018-07-09T06:09:32.959Z,19.70
2018-07-09T06:12:01.181Z,20.00
2018-07-09T06:14:29.384Z,20.10
2018-07-09T06:16:57.556Z,20.10
2018-07-09T06:19:25.883Z,20.20
2018-07-09T06:21:54.068Z,20.60
2018-07-09T06:24:22.280Z,20.60
2018-07-09T06:26:50.468Z,21.00
2018-07-09T06:29:18.649Z,21.30
2018-07-09T06:31:46.872Z,21.50
2018-07-09T06:34:15.084Z,21.50
2018-07-09T06:36:43.282Z,21.70
2018-07-09T06:39:11.493Z,21.80
2018-07-09T06:41:39.705Z,22.30
2018-07-09T06:44:07.972Z,22.60
2018-07-09T06:46:36.156Z,22.60
2018-07-09T06:49:04.388Z,22.60
2018-07-09T06:51:32.628Z,22.90
2018-07-09T06:54:01.052Z,22.50
2018-07-09T06:56:29.241Z,22.60
2018-07-09T06:58:57.402Z,22.60
2018-07-09T07:01:25.668Z,22.80
2018-07-09T07:03:53.830Z,22.70
2018-07-09T07:06:22.140Z,23.10
2018-07-09T07:08:50.454Z,23.20
2018-07-09T07:11:18.562Z,23.10
2018-07-09T07:13:46.845Z,23.10
2018-07-09T07:16:15.028Z,23.10
2018-07-09T07:18:43.280Z,23.50
2018-07-09T07:21:11.490Z,23.80
2018-07-09T07:23:39.664Z,23.50
2018-07-09T07:26:08.324Z,23.70
2018-07-09T07:28:36.564Z,23.60
2018-07-09T07:31:04.768Z,23.80
2018-07-09T07:33:32.980Z,24.20
2018-07-09T07:36:01.154Z,24.20
2018-07-09T07:38:29.416Z,24.00
2018-07-09T07:40:57.594Z,23.90
2018-07-09T07:43:25.815Z,24.00
2018-07-09T07:45:54.069Z,24.30
2018-07-09T07:48:22.244Z,24.40
2018-07-09T07:50:50.531Z,24.60
2018-07-09T07:53:18.689Z,24.90
2018-07-09T07:55:46.907Z,24.90
2018-07-09T07:58:15.113Z,25.10
2018-07-09T08:00:43.296Z,25.20
2018-07-09T08:03:11.501Z,25.00
2018-07-09T08:05:39.701Z,24.80
2018-07-09T08:08:07.945Z,24.80
2018-07-09T08:10:36.169Z,25.20
2018-07-09T08:13:31.430Z,25.00
2018-07-09T08:15:32.653Z,24.90
2018-07-09T08:18:00.825Z,25.20
2018-07-09T08:20:29.032Z,25.10
2018-07-09T08:22:57.364Z,25.00
2018-07-09T08:25:25.593Z,25.30
2018-07-09T08:27:54.201Z,25.40
2018-07-09T08:30:22.408Z,25.30
2018-07-09T08:32:50.606Z,25.30
2018-07-09T08:35:18.800Z,25.50
2018-07-09T08:37:46.993Z,25.60
2018-07-09T08:40:15.209Z,25.80
2018-07-09T08:42:43.389Z,25.90
2018-07-09T08:45:11.620Z,25.50
2018-07-09T08:47:39.792Z,25.40
2018-07-09T08:50:08.097Z,25.00
2018-07-09T08:52:36.301Z,24.80
2018-07-09T08:55:04.529Z,24.90
2018-07-09T08:57:32.733Z,25.10
2018-07-09T09:00:00.919Z,25.20
2018-07-09T09:02:29.159Z,25.40
2018-07-09T09:04:57.325Z,25.60
2018-07-09T09:07:25.525Z,25.80
2018-07-09T09:09:53.711Z,25.90
2018-07-09T09:12:21.903Z,26.00
2018-07-09T09:14:50.090Z,25.70
2018-07-09T09:17:18.257Z,25.90
2018-07-09T09:19:46.464Z,26.00
2018-07-09T09:22:14.682Z,26.10
2018-07-09T09:24:42.848Z,26.20
2018-07-09T09:27:11.045Z,26.50
2018-07-09T09:29:42.244Z,26.60
2018-07-09T09:32:10.440Z,26.60
2018-07-09T09:34:38.609Z,26.80
2018-07-09T09:37:06.897Z,26.70
2018-07-09T09:39:36.412Z,26.80
2018-07-09T09:42:04.840Z,26.90
2018-07-09T09:44:33.040Z,26.60
2018-07-09T09:47:01.205Z,26.40
2018-07-09T09:49:29.909Z,26.20
2018-07-09T09:51:58.061Z,26.10
2018-07-09T09:54:26.312Z,26.10
2018-07-09T09:56:54.469Z,26.20
2018-07-09T09:59:22.988Z,26.30
2018-07-09T10:01:51.217Z,26.20
2018-07-09T10:04:19.384Z,26.00
2018-07-09T10:06:47.597Z,26.00
2018-07-09T10:09:15.772Z,26.20
2018-07-09T10:11:43.977Z,26.20
2018-07-09T10:14:12.257Z,26.60
2018-07-09T10:16:40.469Z,27.00
2018-07-09T10:19:08.676Z,27.00
2018-07-09T10:21:37.144Z,27.00
2018-07-09T10:24:05.379Z,26.70
2018-07-09T10:26:33.581Z,26.60
2018-07-09T10:29:01.783Z,26.30
2018-07-09T10:31:29.993Z,26.20
2018-07-09T10:33:58.172Z,26.10
2018-07-09T10:36:26.357Z,25.80
2018-07-09T10:38:54.560Z,25.30
2018-07-09T10:41:22.964Z,24.70
2018-07-09T10:43:51.425Z,24.80
2018-07-09T10:46:19.632Z,25.20
2018-07-09T10:48:47.830Z,25.70
2018-07-09T10:53:44.069Z,26.50
2018-07-09T10:56:12.354Z,26.40
2018-07-09T10:58:40.601Z,26.70
2018-07-09T11:01:08.768Z,27.00
2018-07-09T11:03:37.108Z,27.20
2018-07-09T11:06:05.637Z,27.50
2018-07-09T11:08:33.904Z,27.80
2018-07-09T11:11:02.130Z,28.00
2018-07-09T11:13:30.393Z,27.70
2018-07-09T11:15:58.604Z,28.00
2018-07-09T11:18:26.838Z,28.10
2018-07-09T11:20:55.025Z,27.60
2018-07-09T11:23:23.261Z,27.40
2018-07-09T11:25:51.416Z,27.60
2018-07-09T11:28:19.662Z,27.60
2018-07-09T11:30:47.907Z,27.80
2018-07-09T11:33:16.092Z,27.90
2018-07-09T11:35:44.284Z,27.90
2018-07-09T11:38:12.481Z,28.20
2018-07-09T11:40:40.676Z,28.60
2018-07-09T11:43:08.904Z,28.60
2018-07-09T11:45:37.113Z,28.20
2018-07-09T11:48:05.348Z,28.30
2018-07-09T11:50:33.569Z,28.70
2018-07-09T11:53:01.814Z,28.60
2018-07-09T11:55:30.037Z,28.50
2018-07-09T11:57:58.272Z,28.20
2018-07-09T12:00:26.522Z,28.10
2018-07-09T12:02:54.688Z,28.00
2018-07-09T12:05:22.893Z,27.70
2018-07-09T12:07:51.092Z,27.60
2018-07-09T12:10:19.284Z,27.70
2018-07-09T12:12:47.500Z,28.00
2018-07-09T12:15:15.665Z,28.10
2018-07-09T12:17:44.152Z,27.80
2018-07-09T12:20:12.407Z,28.00
2018-07-09T12:22:40.580Z,28.30
2018-07-09T12:25:08.798Z,28.50
2018-07-09T12:27:36.973Z,28.60
2018-07-09T12:30:05.283Z,28.70
2018-07-09T12:32:33.484Z,28.20
2018-07-09T12:35:01.674Z,28.40
2018-07-09T12:37:29.897Z,28.60
2018-07-09T12:39:58.049Z,28.20
2018-07-09T12:42:26.260Z,28.30
2018-07-09T12:44:54.461Z,28.10
2018-07-09T12:47:22.616Z,28.20
2018-07-09T12:49:50.864Z,28.00
2018-07-09T12:52:19.040Z,28.30
2018-07-09T12:57:15.257Z,28.80
2018-07-09T12:59:43.442Z,28.90
2018-07-09T13:02:11.665Z,28.70
2018-07-09T13:04:39.872Z,28.70
2018-07-09T13:07:08.041Z,28.80
2018-07-09T13:09:36.304Z,28.80
2018-07-09T13:12:04.581Z,28.90
2018-07-09T13:14:32.843Z,29.00
2018-07-09T13:17:01.042Z,28.70
2018-07-09T13:19:29.216Z,28.40
2018-07-09T13:21:57.560Z,28.50
2018-07-09T13:24:25.772Z,28.20
2018-07-09T13:26:54.011Z,27.90
2018-07-09T13:29:22.211Z,27.80
2018-07-09T13:31:50.488Z,27.90
2018-07-09T13:34:18.768Z,27.90
2018-07-09T13:36:47.137Z,27.90
2018-07-09T13:39:15.322Z,27.80
2018-07-09T13:41:43.533Z,27.80
2018-07-09T13:44:11.692Z,27.70
2018-07-09T13:46:39.957Z,27.50
2018-07-09T13:49:08.298Z,27.60
2018-07-09T13:51:36.716Z,27.70
2018-07-09T13:54:04.928Z,27.90
2018-07-09T13:56:33.209Z,28.00
2018-07-09T13:59:01.757Z,28.30
2018-07-09T14:01:29.939Z,28.40
2018-07-09T14:03:58.126Z,29.00
2018-07-09T14:06:26.277Z,29.00
2018-07-09T14:08:54.460Z,29.40
2018-07-09T14:11:22.626Z,28.40
2018-07-09T14:13:50.972Z,28.40
2018-07-09T14:16:19.197Z,28.50
2018-07-09T14:18:47.398Z,28.70
2018-07-09T14:21:15.635Z,28.50
2018-07-09T14:23:43.809Z,28.50
2018-07-09T14:26:12.037Z,28.70
2018-07-09T14:28:40.210Z,29.00
2018-07-09T14:31:08.459Z,29.40
2018-07-09T14:33:36.740Z,29.50
2018-07-09T14:36:05.093Z,29.60
2018-07-09T14:38:33.317Z,29.40
2018-07-09T14:41:01.493Z,29.30
2018-07-09T14:43:29.697Z,29.20
2018-07-09T14:45:57.959Z,29.10
2018-07-09T14:48:26.141Z,28.90
2018-07-09T14:50:54.362Z,28.90
2018-07-09T14:53:29.161Z,28.90
2018-07-09T14:55:57.373Z,28.90
2018-07-09T14:58:25.606Z,28.70
2018-07-09T15:00:53.897Z,28.80
2018-07-09T15:03:22.161Z,28.60
2018-07-09T15:05:50.472Z,28.60
2018-07-09T15:08:18.692Z,28.40
2018-07-09T15:10:46.906Z,28.60
2018-07-09T15:13:15.104Z,28.30
2018-07-09T15:15:43.377Z,27.90
2018-07-09T15:18:11.567Z,27.50
2018-07-09T15:20:39.769Z,27.40
2018-07-09T15:23:07.961Z,27.40
2018-07-09T15:25:36.144Z,27.40
2018-07-09T15:28:04.620Z,27.60
2018-07-09T15:30:32.863Z,27.90
2018-07-09T15:33:01.061Z,28.10
2018-07-09T15:35:29.502Z,28.20
2018-07-09T15:37:57.725Z,28.10
2018-07-09T15:40:25.917Z,27.70
2018-07-09T15:42:54.137Z,27.50
2018-07-09T15:45:22.372Z,27.20
2018-07-09T15:47:50.820Z,27.30
2018-07-09T15:50:19.121Z,27.20
2018-07-09T15:52:47.641Z,27.10
2018-07-09T15:55:15.864Z,27.00
2018-07-09T15:57:44.128Z,26.90
2018-07-09T16:00:12.284Z,26.80
2018-07-09T16:02:40.740Z,26.80
2018-07-09T16:05:08.956Z,26.90
2018-07-09T16:07:37.515Z,26.90
2018-07-09T16:10:05.782Z,26.80
2018-07-09T16:12:34.217Z,26.80
2018-07-09T16:15:02.469Z,26.80
2018-07-09T16:17:30.773Z,26.40
2018-07-09T16:19:58.992Z,26.20
2018-07-09T16:22:27.165Z,26.20
2018-07-09T16:24:55.365Z,26.10
2018-07-09T16:27:23.541Z,26.10
2018-07-09T16:29:51.736Z,25.80
2018-07-09T16:32:19.983Z,25.60
2018-07-09T16:34:48.191Z,25.60
2018-07-09T16:37:16.396Z,25.70
2018-07-09T16:39:44.673Z,25.60
2018-07-09T16:42:12.846Z,25.60
2018-07-09T16:44:41.040Z,25.70
2018-07-09T16:47:09.258Z,25.70
2018-07-09T16:49:37.433Z,25.60
2018-07-09T16:52:05.681Z,25.70
2018-07-09T16:54:33.844Z,25.70
2018-07-09T16:57:02.032Z,25.50
2018-07-09T16:59:30.229Z,25.50
2018-07-09T17:01:58.388Z,25.40
2018-07-09T17:04:26.597Z,25.40
2018-07-09T17:06:54.840Z,25.50
2018-07-09T17:09:23.079Z,25.40
2018-07-09T17:11:51.268Z,25.20
2018-07-09T17:14:19.461Z,25.20
2018-07-09T17:16:47.616Z,25.20
2018-07-09T17:19:15.882Z,25.30
2018-07-09T17:21:44.045Z,25.30
2018-07-09T17:24:12.241Z,25.40
2018-07-09T17:26:40.565Z,25.40
2018-07-09T17:29:08.652Z,25.50
2018-07-09T17:31:36.833Z,25.50
2018-07-09T17:34:05.037Z,25.40
2018-07-09T17:36:33.238Z,25.40
2018-07-09T17:39:01.396Z,25.50
2018-07-09T17:41:29.589Z,25.50
2018-07-09T17:43:57.829Z,25.40
2018-07-09T17:46:26.069Z,25.40
2018-07-09T17:48:54.252Z,25.30
2018-07-09T17:51:22.413Z,25.40
2018-07-09T17:53:50.612Z,25.20
2018-07-09T17:56:18.866Z,25.10
2018-07-09T17:58:47.029Z,25.00
2018-07-09T18:01:15.333Z,24.60
2018-07-09T18:03:43.529Z,24.50
2018-07-09T18:06:11.726Z,24.40
2018-07-09T18:08:39.985Z,24.30
2018-07-09T18:11:08.148Z,24.10
2018-07-09T18:13:36.384Z,24.00
2018-07-09T18:16:04.569Z,23.90
2018-07-09T18:18:32.776Z,23.90
2018-07-09T18:21:00.989Z,23.80
2018-07-09T18:23:29.141Z,23.90
2018-07-09T18:25:57.363Z,23.90
2018-07-09T18:28:25.587Z,23.90
2018-07-09T18:30:53.776Z,23.80
2018-07-09T18:33:21.988Z,23.70
2018-07-09T18:35:50.469Z,23.50
2018-07-09T18:38:18.789Z,23.50
2018-07-09T18:40:47.037Z,23.40
2018-07-09T18:43:15.965Z,23.30
2018-07-09T18:45:44.403Z,23.10
2018-07-09T18:48:12.668Z,23.00
2018-07-09T18:50:40.957Z,23.00
2018-07-09T18:53:09.182Z,23.00
2018-07-09T18:55:37.361Z,22.90
2018-07-09T18:58:06.461Z,22.90
2018-07-09T19:00:34.668Z,22.70
2018-07-09T19:03:02.949Z,22.50
2018-07-09T19:06:41.821Z,22.50
2018-07-09T19:09:10.200Z,22.50
2018-07-09T19:11:38.589Z,22.40
2018-07-09T19:14:07.165Z,22.40
2018-07-09T19:16:45.282Z,22.40
2018-07-09T19:19:24.590Z,22.40
2018-07-09T19:21:59.830Z,22.40
2018-07-09T19:24:26.982Z,22.40
2018-07-09T19:26:54.040Z,22.30
2018-07-09T19:29:20.929Z,22.20
2018-07-09T19:31:47.768Z,22.00
2018-07-09T19:34:14.617Z,22.00
2018-07-09T19:36:41.593Z,21.90
2018-07-09T19:39:09.789Z,22.00
2018-07-09T19:44:09.936Z,22.00
2018-07-09T19:46:36.784Z,21.80
2018-07-09T19:49:03.689Z,21.60
2018-07-09T19:51:30.501Z,21.50
2018-07-09T19:53:57.345Z,21.30
2018-07-09T19:56:24.165Z,21.10
2018-07-09T19:58:51.012Z,21.00
2018-07-09T20:01:17.855Z,20.80
2018-07-09T20:03:44.665Z,20.80
2018-07-09T20:06:11.590Z,20.90
2018-07-09T20:08:43.932Z,21.10
2018-07-09T20:11:16.352Z,21.00
2018-07-09T20:13:50.586Z,21.00
2018-07-09T20:16:22.976Z,21.10
2018-07-09T20:18:51.022Z,21.20
2018-07-09T20:21:17.873Z,21.20
2018-07-09T20:23:44.702Z,21.30
2018-07-09T20:26:11.675Z,21.30
2018-07-09T20:28:38.532Z,21.30
2018-07-09T20:31:05.332Z,21.10
2018-07-09T20:33:32.177Z,21.10
2018-07-09T20:35:59.093Z,21.10
2018-07-09T20:38:26.237Z,21.00
2018-07-09T20:40:53.078Z,21.10
2018-07-09T20:43:19.889Z,21.10
2018-07-09T20:45:46.766Z,21.00
2018-07-09T20:48:13.587Z,21.00
2018-07-09T20:50:40.448Z,21.10
2018-07-09T20:53:07.341Z,21.00
2018-07-09T20:55:34.809Z,21.00
2018-07-09T20:58:01.761Z,21.10
2018-07-09T21:00:28.609Z,21.10
2018-07-09T21:02:55.496Z,21.00
2018-07-09T21:05:22.353Z,20.90
2018-07-09T21:07:49.204Z,20.70
2018-07-09T21:10:16.068Z,20.60
2018-07-09T21:12:48.544Z,20.50
2018-07-09T21:15:15.540Z,20.50
2018-07-09T21:17:42.256Z,20.40
2018-07-09T21:20:09.097Z,20.30
2018-07-09T21:22:35.893Z,20.30
2018-07-09T21:25:02.758Z,20.40
2018-07-09T21:27:29.569Z,20.60
2018-07-09T21:29:56.382Z,20.60
2018-07-09T21:32:23.221Z,20.70
2018-07-09T21:34:50.059Z,20.70
2018-07-09T21:37:16.896Z,20.80
2018-07-09T21:39:43.741Z,20.70
2018-07-09T21:42:10.607Z,20.50
2018-07-09T21:44:37.458Z,20.50
2018-07-09T21:47:04.301Z,20.20
2018-07-09T21:49:31.179Z,20.00
2018-07-09T21:51:58.068Z,20.10
2018-07-09T21:54:24.893Z,20.00
2018-07-09T21:56:51.737Z,20.00
2018-07-09T21:59:18.585Z,19.80
2018-07-09T22:01:45.388Z,19.60
2018-07-09T22:04:12.308Z,19.70
2018-07-09T22:06:39.116Z,19.80
2018-07-09T22:09:06.253Z,19.90
2018-07-09T22:14:01.077Z,20.10
2018-07-09T22:16:28.145Z,20.00
2018-07-09T22:21:22.264Z,19.80
2018-07-09T22:23:49.100Z,19.80
2018-07-09T22:26:15.917Z,19.80
2018-07-09T22:28:46.507Z,19.70
2018-07-09T22:33:42.655Z,19.90
2018-07-09T22:36:10.866Z,19.90
2018-07-09T22:38:39.013Z,20.00
2018-07-09T22:41:07.449Z,20.00
2018-07-09T22:44:44.353Z,19.90
2018-07-09T22:47:12.508Z,19.70
2018-07-09T22:49:40.712Z,19.60
2018-07-09T22:52:08.916Z,19.60
2018-07-09T22:54:37.563Z,19.50
2018-07-09T22:57:05.877Z,19.50
2018-07-09T22:59:34.053Z,19.60
2018-07-09T23:02:02.326Z,19.60
2018-07-09T23:04:30.493Z,19.60
2018-07-09T23:06:58.786Z,19.60
2018-07-09T23:11:44.552Z,19.70
2018-07-09T23:15:31.564Z,19.60
2018-07-09T23:18:11.148Z,19.60
2018-07-09T23:22:20.416Z,19.60
2018-07-09T23:24:47.230Z,19.50
2018-07-09T23:27:14.105Z,19.30
2018-07-09T23:29:40.941Z,19.30
2018-07-09T23:32:07.749Z,19.30
2018-07-09T23:34:34.592Z,19.40
2018-07-09T23:37:01.402Z,19.40
2018-07-09T23:39:28.240Z,19.50
2018-07-09T23:41:55.076Z,19.60
2018-07-09T23:44:21.868Z,19.60
2018-07-09T23:46:48.704Z,19.50
2018-07-09T23:49:15.504Z,19.50
2018-07-09T23:51:42.308Z,19.40
2018-07-09T23:54:09.152Z,19.30
2018-07-09T23:56:54.968Z,19.20
2018-07-09T23:59:34.194Z,19.20
